createdAt,value
2018-07-15T05:59:11.297Z,98648.37
2018-07-15T06:01:39.460Z,98645.19
2018-07-15T06:04:07.628Z,98654.84
2018-07-15T06:06:35.708Z,98657.20
2018-07-15T06:09:04.652Z,98661.30
2018-07-15T06:11:32.743Z,98666.16
2018-07-15T06:14:00.808Z,98652.73
2018-07-15T06:16:28.876Z,98659.25
2018-07-15T06:18:56.964Z,98656.44
2018-07-15T06:21:25.040Z,98663.77
2018-07-15T06:23:53.956Z,98665.66
2018-07-15T06:26:22.034Z,98666.48
2018-07-15T06:28:50.141Z,98665.45
2018-07-15T06:31:18.207Z,98662.93
2018-07-15T06:33:46.293Z,98662.03
2018-07-15T06:36:14.381Z,98661.50
2018-07-15T06:38:42.452Z,98662.55
2018-07-15T06:41:10.532Z,98666.57
2018-07-15T06:43:38.609Z,98664.81
2018-07-15T06:46:06.748Z,98669.91
2018-07-15T06:48:34.823Z,98675.00
2018-07-15T06:51:02.912Z,98676.03
2018-07-15T06:53:30.981Z,98671.30
2018-07-15T06:55:59.112Z,98681.34
2018-07-15T06:58:27.153Z,98679.55
2018-07-15T07:00:55.475Z,98672.47
2018-07-15T07:03:23.780Z,98678.31
2018-07-15T07:05:51.976Z,98671.83
2018-07-15T07:08:20.049Z,98667.18
2018-07-15T07:10:48.135Z,98667.49
2018-07-15T07:13:16.226Z,98665.11
2018-07-15T07:15:44.322Z,98664.34
2018-07-15T07:18:12.404Z,98665.77
2018-07-15T07:20:40.493Z,98665.61
2018-07-15T07:23:08.569Z,98670.13
2018-07-15T07:25:36.996Z,98670.59
2018-07-15T07:28:05.166Z,98667.36
2018-07-15T07:30:33.243Z,98669.80
2018-07-15T07:33:01.335Z,98672.48
2018-07-15T07:35:29.490Z,98668.13
2018-07-15T07:37:57.518Z,98659.80
2018-07-15T07:40:25.605Z,98662.92
2018-07-15T07:42:53.688Z,98663.52
2018-07-15T07:45:21.853Z,98664.86
2018-07-15T07:47:49.944Z,98666.00
2018-07-15T07:50:18.056Z,98658.77
2018-07-15T07:52:46.156Z,98655.52
2018-07-15T07:55:14.220Z,98653.03
2018-07-15T07:57:42.366Z,98656.20
2018-07-15T08:00:10.436Z,98648.02
2018-07-15T08:02:38.514Z,98641.89
2018-07-15T08:05:06.612Z,98643.27
2018-07-15T08:07:34.738Z,98641.34
2018-07-15T08:10:03.026Z,98639.98
2018-07-15T08:12:31.316Z,98645.56
2018-07-15T08:14:59.395Z,98643.03
2018-07-15T08:17:27.527Z,98650.18
2018-07-15T08:19:56.188Z,98646.17
2018-07-15T08:22:24.248Z,98648.16
2018-07-15T08:24:52.345Z,98638.89
2018-07-15T08:27:20.422Z,98644.73
2018-07-15T08:29:59.906Z,98641.82
2018-07-15T08:32:27.986Z,98644.94
2018-07-15T08:34:56.092Z,98645.48
2018-07-15T08:37:24.160Z,98651.94
2018-07-15T08:39:52.571Z,98650.41
2018-07-15T08:42:20.640Z,98654.73
2018-07-15T08:44:48.716Z,98654.78
2018-07-15T08:47:17.432Z,98650.93
2018-07-15T08:49:45.492Z,98655.73
2018-07-15T08:52:13.543Z,98652.54
2018-07-15T08:54:41.665Z,98647.67
2018-07-15T08:57:09.713Z,98653.50
2018-07-15T08:59:37.832Z,98656.69
2018-07-15T09:02:05.959Z,98655.11
2018-07-15T09:04:34.044Z,98653.05
2018-07-15T09:07:02.197Z,98652.83
2018-07-15T09:09:30.622Z,98648.70
2018-07-15T09:11:58.824Z,98647.66
2018-07-15T09:14:26.895Z,98646.20
2018-07-15T09:16:54.947Z,98647.23
2018-07-15T09:19:23.021Z,98644.91
2018-07-15T09:21:51.085Z,98647.45
2018-07-15T09:24:19.132Z,98649.57
2018-07-15T09:26:47.738Z,98649.06
2018-07-15T09:29:15.794Z,98649.61
2018-07-15T09:31:43.875Z,98646.45
2018-07-15T09:34:11.969Z,98644.85
2018-07-15T09:36:40.026Z,98639.89
2018-07-15T09:39:08.197Z,98640.61
2018-07-15T09:41:36.241Z,98629.63
2018-07-15T09:44:04.338Z,98625.97
2018-07-15T09:46:32.385Z,98633.74
2018-07-15T09:49:00.461Z,98629.53
2018-07-15T09:51:28.520Z,98623.09
2018-07-15T09:53:56.608Z,98628.11
2018-07-15T09:56:24.691Z,98622.32
2018-07-15T09:58:52.737Z,98621.91
2018-07-15T10:01:20.804Z,98617.66
2018-07-15T10:03:48.876Z,98613.84
2018-07-15T10:06:16.951Z,98616.67
2018-07-15T10:08:45.035Z,98601.75
2018-07-15T10:11:13.108Z,98605.06
2018-07-15T10:13:41.175Z,98595.03
2018-07-15T10:16:09.247Z,98594.72
2018-07-15T10:18:37.324Z,98593.67
2018-07-15T10:21:05.697Z,98590.50
2018-07-15T10:23:33.772Z,98592.54
2018-07-15T10:26:01.849Z,98587.75
2018-07-15T10:28:29.908Z,98585.48
2018-07-15T10:30:58.184Z,98576.75
2018-07-15T10:33:26.255Z,98581.58
2018-07-15T10:35:54.329Z,98575.91
2018-07-15T10:38:22.388Z,98567.61
2018-07-15T10:40:50.480Z,98565.53
2018-07-15T10:43:18.524Z,98565.44
2018-07-15T10:45:46.599Z,98558.59
2018-07-15T10:48:14.676Z,98545.55
2018-07-15T10:50:42.749Z,98556.38
2018-07-15T10:53:10.821Z,98552.44
2018-07-15T10:55:38.910Z,98550.56
2018-07-15T10:58:07.067Z,98551.63
2018-07-15T11:00:35.168Z,98543.59
2018-07-15T11:03:03.246Z,98544.42
2018-07-15T11:05:31.309Z,98547.63
2018-07-15T11:07:59.396Z,98551.72
2018-07-15T11:10:27.457Z,98556.24
2018-07-15T11:12:55.550Z,98562.92
2018-07-15T11:15:23.632Z,98562.43
2018-07-15T11:17:51.724Z,98565.09
2018-07-15T11:20:19.871Z,98571.42
2018-07-15T11:22:47.954Z,98572.25
2018-07-15T11:25:16.030Z,98578.20
2018-07-15T11:27:44.122Z,98580.75
2018-07-15T11:30:12.189Z,98572.91
2018-07-15T11:32:40.330Z,98579.31
2018-07-15T11:35:08.621Z,98581.45
2018-07-15T11:37:37.636Z,98579.80
2018-07-15T11:40:05.814Z,98582.39
2018-07-15T11:42:33.884Z,98579.61
2018-07-15T11:45:01.949Z,98582.59
2018-07-15T11:47:30.008Z,98586.87
2018-07-15T11:49:58.092Z,98588.23
2018-07-15T11:52:26.156Z,98586.52
2018-07-15T11:54:54.219Z,98591.20
2018-07-15T11:57:22.335Z,98591.05
2018-07-15T11:59:50.393Z,98588.48
2018-07-15T12:02:18.467Z,98594.43
2018-07-15T12:04:46.531Z,98587.89
2018-07-15T12:07:14.596Z,98580.47
2018-07-15T12:09:42.671Z,98580.09
2018-07-15T12:12:10.744Z,98577.63
2018-07-15T12:14:38.812Z,98568.64
2018-07-15T12:17:06.932Z,98559.02
2018-07-15T12:19:35.017Z,98555.03
2018-07-15T12:22:03.068Z,98551.53
2018-07-15T12:24:31.136Z,98540.17
2018-07-15T12:26:59.208Z,98541.23
2018-07-15T12:29:27.261Z,98527.44
2018-07-15T12:31:55.311Z,98521.38
2018-07-15T12:34:23.391Z,98517.77
2018-07-15T12:36:51.461Z,98510.62
2018-07-15T12:39:19.549Z,98499.41
2018-07-15T12:41:47.605Z,98494.78
2018-07-15T12:44:15.732Z,98498.00
2018-07-15T12:46:43.807Z,98501.63
2018-07-15T12:49:11.876Z,98501.69
2018-07-15T12:51:39.936Z,98498.67
2018-07-15T12:54:08.030Z,98505.74
2018-07-15T12:56:36.108Z,98507.95
2018-07-15T12:59:04.202Z,98505.67
2018-07-15T13:01:32.248Z,98503.56
2018-07-15T13:04:00.310Z,98506.86
2018-07-15T13:06:28.368Z,98489.38
2018-07-15T13:08:56.446Z,98495.59
2018-07-15T13:11:24.512Z,98497.96
2018-07-15T13:13:52.567Z,98488.98
2018-07-15T13:16:20.628Z,98489.28
2018-07-15T13:18:48.751Z,98487.81
2018-07-15T13:21:16.834Z,98484.64
2018-07-15T13:23:44.917Z,98471.16
2018-07-15T13:26:12.981Z,98468.08
2018-07-15T13:28:41.068Z,98472.45
2018-07-15T13:31:10.212Z,98464.70
2018-07-15T13:33:38.287Z,98465.18
2018-07-15T13:36:06.396Z,98466.39
2018-07-15T13:38:34.462Z,98467.53
2018-07-15T13:41:02.744Z,98463.55
2018-07-15T13:43:30.820Z,98466.58
2018-07-15T13:45:58.882Z,98466.40
2018-07-15T13:48:26.945Z,98460.98
2018-07-15T13:50:55.027Z,98462.19
2018-07-15T13:53:23.075Z,98451.56
2018-07-15T13:55:51.147Z,98451.40
2018-07-15T13:58:19.287Z,98461.63
2018-07-15T14:00:47.447Z,98457.88
2018-07-15T14:03:15.565Z,98462.15
2018-07-15T14:05:43.663Z,98460.50
2018-07-15T14:08:11.739Z,98463.36
2018-07-15T14:10:39.890Z,98470.39
2018-07-15T14:13:07.992Z,98477.17
2018-07-15T14:15:36.067Z,98474.70
2018-07-15T14:18:04.140Z,98473.48
2018-07-15T14:20:32.224Z,98476.28
2018-07-15T14:23:00.296Z,98470.63
2018-07-15T14:25:28.373Z,98475.79
2018-07-15T14:27:56.476Z,98471.06
2018-07-15T14:30:24.550Z,98467.89
2018-07-15T14:32:52.609Z,98465.95
2018-07-15T14:35:20.692Z,98459.50
2018-07-15T14:37:48.779Z,98465.75
2018-07-15T14:40:16.828Z,98463.41
2018-07-15T14:42:44.893Z,98464.23
2018-07-15T14:45:12.968Z,98466.70
2018-07-15T14:47:41.052Z,98471.38
2018-07-15T14:50:09.123Z,98469.64
2018-07-15T14:52:37.224Z,98477.37
2018-07-15T14:55:05.349Z,98489.91
2018-07-15T14:57:33.430Z,98502.41
2018-07-15T15:00:01.506Z,98515.04
2018-07-15T15:02:29.579Z,98528.61
2018-07-15T15:04:58.044Z,98534.24
2018-07-15T15:07:26.121Z,98555.57
2018-07-15T15:09:54.185Z,98566.05
2018-07-15T16:07:15.288Z,98588.12
2018-07-15T16:09:43.514Z,98596.63
2018-07-15T16:15:14.933Z,98598.39
2018-07-15T16:17:43.057Z,98596.65
2018-07-15T16:20:11.106Z,98600.65
2018-07-15T16:22:39.191Z,98611.45
2018-07-15T16:25:07.248Z,98610.16
2018-07-15T16:27:35.366Z,98613.09
2018-07-15T16:30:03.491Z,98614.94
2018-07-15T16:32:31.569Z,98618.19
2018-07-15T16:34:59.627Z,98621.23
2018-07-15T16:37:27.732Z,98611.50
2018-07-15T16:39:55.785Z,98610.79
2018-07-15T16:42:23.836Z,98600.87
2018-07-15T16:44:51.938Z,98605.23
2018-07-15T16:47:19.982Z,98591.63
2018-07-15T16:49:48.088Z,98588.05
2018-07-15T16:52:16.107Z,98587.21
2018-07-15T16:54:44.172Z,98578.62
2018-07-15T17:33:48.631Z,98494.54
2018-07-15T17:36:18.146Z,98499.42
2018-07-15T17:38:46.227Z,98496.12
2018-07-15T17:41:14.273Z,98491.48
2018-07-15T17:43:42.576Z,98489.65
2018-07-15T17:46:10.689Z,98486.70
2018-07-15T17:48:38.721Z,98493.00
2018-07-15T17:51:06.917Z,98504.50
2018-07-15T17:53:35.475Z,98502.62
2018-07-15T17:56:03.542Z,98498.28
2018-07-15T17:58:31.667Z,98491.28
2018-07-15T18:00:59.721Z,98496.70
2018-07-15T18:03:28.107Z,98496.11
2018-07-15T18:05:56.185Z,98502.16
2018-07-15T18:08:24.245Z,98501.90
2018-07-15T18:10:52.321Z,98500.31
2018-07-15T18:13:20.377Z,98514.66
2018-07-15T18:34:06.022Z,98571.98
2018-07-15T18:36:34.199Z,98567.89
2018-07-15T18:39:02.478Z,98573.45
2018-07-15T18:53:48.105Z,98570.28
2018-07-15T18:56:16.220Z,98569.98
2018-07-15T18:58:44.382Z,98570.97
2018-07-15T19:01:12.497Z,98570.28
2018-07-15T19:03:40.580Z,98571.42
2018-07-15T19:06:09.026Z,98567.80
2018-07-15T19:08:36.967Z,98572.64
2018-07-15T19:11:05.064Z,98570.89
2018-07-15T19:13:33.141Z,98568.00
2018-07-15T19:16:01.205Z,98563.43
2018-07-15T19:18:29.275Z,98561.79
2018-07-15T19:20:57.350Z,98567.23
2018-07-15T19:23:25.404Z,98570.22
2018-07-15T19:25:53.859Z,98570.83
2018-07-15T19:28:21.920Z,98563.42
2018-07-15T19:30:49.996Z,98563.99
2018-07-15T19:33:18.064Z,98556.67
2018-07-15T19:35:46.157Z,98559.38
2018-07-15T19:38:14.220Z,98549.79
2018-07-15T19:40:42.300Z,98554.01
2018-07-15T19:43:10.415Z,98547.05
2018-07-15T19:45:38.479Z,98546.80
2018-07-15T19:48:07.000Z,98541.57
2018-07-15T19:50:35.067Z,98538.63
2018-07-15T19:53:03.413Z,98548.41
2018-07-15T19:55:31.480Z,98554.34
2018-07-15T20:10:11.395Z,98555.56
2018-07-15T20:12:39.582Z,98555.27
2018-07-15T20:18:10.738Z,98557.68
2018-07-15T20:32:51.665Z,98549.34
2018-07-15T20:35:19.869Z,98548.13
2018-07-15T20:37:48.482Z,98546.46
2018-07-15T20:40:16.680Z,98554.23
2018-07-15T20:42:45.417Z,98546.27
2018-07-15T20:45:13.990Z,98544.87
2018-07-15T20:47:42.047Z,98546.80
2018-07-15T20:50:10.120Z,98537.34
2018-07-15T20:52:38.731Z,98540.17
2018-07-15T20:55:06.823Z,98538.77
2018-07-15T20:57:34.952Z,98538.95
2018-07-15T21:00:03.380Z,98534.00
2018-07-15T21:02:31.547Z,98537.23
2018-07-15T21:04:59.561Z,98546.52
2018-07-15T21:07:27.638Z,98543.20
2018-07-15T21:09:57.103Z,98542.83
2018-07-15T21:12:25.179Z,98546.30
2018-07-15T21:14:53.261Z,98544.31
2018-07-15T21:50:53.622Z,98557.02
2018-07-15T21:53:21.890Z,98565.41
2018-07-15T21:55:50.010Z,98576.61
2018-07-15T21:58:18.147Z,98585.81
